sensor_id;sensor_type;location;lat;lon;timestamp;temperature;humidity
13892;DHT22;7016;48.172;8.058;2022-08-11T00:01:52;18.90;64.90
13892;DHT22;7016;48.172;8.058;2022-08-11T00:04:21;18.80;65.20
13892;DHT22;7016;48.172;8.058;2022-08-11T00:06:48;18.60;66.00
13892;DHT22;7016;48.172;8.058;2022-08-11T00:09:35;18.70;66.30
13892;DHT22;7016;48.172;8.058;2022-08-11T00:12:02;18.90;64.20
13892;DHT22;7016;48.172;8.058;2022-08-11T00:14:30;18.80;64.60
13892;DHT22;7016;48.172;8.058;2022-08-11T00:19:32;18.90;65.40
13892;DHT22;7016;48.172;8.058;2022-08-11T00:21:59;18.60;65.10
13892;DHT22;7016;48.172;8.058;2022-08-11T00:24:32;18.60;66.10
13892;DHT22;7016;48.172;8.058;2022-08-11T00:26:58;18.60;66.10
13892;DHT22;7016;48.172;8.058;2022-08-11T00:29:25;18.50;66.70
13892;DHT22;7016;48.172;8.058;2022-08-11T00:31:53;18.50;67.00
13892;DHT22;7016;48.172;8.058;2022-08-11T00:34:30;18.50;66.80
13892;DHT22;7016;48.172;8.058;2022-08-11T00:37:10;18.50;67.00
13892;DHT22;7016;48.172;8.058;2022-08-11T00:39:44;18.60;66.70
13892;DHT22;7016;48.172;8.058;2022-08-11T00:45:08;18.60;66.70
13892;DHT22;7016;48.172;8.058;2022-08-11T00:50:46;18.40;66.40
13892;DHT22;7016;48.172;8.058;2022-08-11T01:50:14;18.00;69.50
13892;DHT22;7016;48.172;8.058;2022-08-11T01:55:30;18.10;68.50
13892;DHT22;7016;48.172;8.058;2022-08-11T01:58:19;18.20;68.80
13892;DHT22;7016;48.172;8.058;2022-08-11T02:01:10;18.20;68.20
13892;DHT22;7016;48.172;8.058;2022-08-11T02:03:46;18.10;69.20
13892;DHT22;7016;48.172;8.058;2022-08-11T02:06:37;18.10;68.40
13892;DHT22;7016;48.172;8.058;2022-08-11T02:09:38;18.10;68.30
13892;DHT22;7016;48.172;8.058;2022-08-11T02:13:03;17.90;68.20
13892;DHT22;7016;48.172;8.058;2022-08-11T02:18:33;17.80;68.90
13892;DHT22;7016;48.172;8.058;2022-08-11T02:21:26;17.80;68.80
13892;DHT22;7016;48.172;8.058;2022-08-11T02:24:22;17.70;70.30
13892;DHT22;7016;48.172;8.058;2022-08-11T02:27:01;17.60;70.20
13892;DHT22;7016;48.172;8.058;2022-08-11T02:29:43;17.50;70.10
13892;DHT22;7016;48.172;8.058;2022-08-11T02:32:30;17.50;70.00
13892;DHT22;7016;48.172;8.058;2022-08-11T02:35:28;17.50;70.40
13892;DHT22;7016;48.172;8.058;2022-08-11T02:38:28;17.50;70.70
13892;DHT22;7016;48.172;8.058;2022-08-11T02:41:14;17.60;69.90
13892;DHT22;7016;48.172;8.058;2022-08-11T02:44:55;17.60;70.60
13892;DHT22;7016;48.172;8.058;2022-08-11T03:13:20;17.90;68.20
13892;DHT22;7016;48.172;8.058;2022-08-11T03:19:21;17.90;68.60
13892;DHT22;7016;48.172;8.058;2022-08-11T03:22:08;17.70;68.60
13892;DHT22;7016;48.172;8.058;2022-08-11T03:27:57;17.60;70.20
13892;DHT22;7016;48.172;8.058;2022-08-11T03:33:25;17.50;70.10
13892;DHT22;7016;48.172;8.058;2022-08-11T03:36:51;17.60;70.20
13892;DHT22;7016;48.172;8.058;2022-08-11T03:39:52;17.60;70.50
13892;DHT22;7016;48.172;8.058;2022-08-11T03:53:43;17.90;69.50
13892;DHT22;7016;48.172;8.058;2022-08-11T04:04:22;17.80;70.40
13892;DHT22;7016;48.172;8.058;2022-08-11T04:07:29;17.60;70.30
13892;DHT22;7016;48.172;8.058;2022-08-11T04:10:31;17.70;69.60
13892;DHT22;7016;48.172;8.058;2022-08-11T04:16:00;17.80;69.70
13892;DHT22;7016;48.172;8.058;2022-08-11T04:21:35;17.70;69.50
13892;DHT22;7016;48.172;8.058;2022-08-11T04:41:17;17.70;69.70
13892;DHT22;7016;48.172;8.058;2022-08-11T04:44:15;17.60;70.50
13892;DHT22;7016;48.172;8.058;2022-08-11T04:49:37;17.60;70.70
13892;DHT22;7016;48.172;8.058;2022-08-11T04:59:00;17.80;72.10
13892;DHT22;7016;48.172;8.058;2022-08-11T05:10:32;18.10;69.90
13892;DHT22;7016;48.172;8.058;2022-08-11T05:13:06;18.10;70.20
13892;DHT22;7016;48.172;8.058;2022-08-11T05:15:57;18.10;70.40
13892;DHT22;7016;48.172;8.058;2022-08-11T05:18:50;18.00;71.00
13892;DHT22;7016;48.172;8.058;2022-08-11T05:21:37;17.90;70.50
13892;DHT22;7016;48.172;8.058;2022-08-11T05:24:40;17.90;71.30
13892;DHT22;7016;48.172;8.058;2022-08-11T05:27:35;18.20;70.70
13892;DHT22;7016;48.172;8.058;2022-08-11T05:30:27;18.30;69.90
13892;DHT22;7016;48.172;8.058;2022-08-11T05:33:22;18.30;70.40
13892;DHT22;7016;48.172;8.058;2022-08-11T05:36:14;18.20;71.20
13892;DHT22;7016;48.172;8.058;2022-08-11T05:38:55;18.20;70.50
13892;DHT22;7016;48.172;8.058;2022-08-11T05:41:41;18.40;69.40
13892;DHT22;7016;48.172;8.058;2022-08-11T05:44:26;18.50;70.60
13892;DHT22;7016;48.172;8.058;2022-08-11T05:47:23;18.60;69.60
13892;DHT22;7016;48.172;8.058;2022-08-11T05:50:10;18.50;68.50
13892;DHT22;7016;48.172;8.058;2022-08-11T05:52:56;18.50;69.20
13892;DHT22;7016;48.172;8.058;2022-08-11T05:55:42;18.50;70.10
13892;DHT22;7016;48.172;8.058;2022-08-11T05:58:36;18.70;70.30
13892;DHT22;7016;48.172;8.058;2022-08-11T06:01:03;18.90;68.90
13892;DHT22;7016;48.172;8.058;2022-08-11T06:03:32;18.80;69.60
13892;DHT22;7016;48.172;8.058;2022-08-11T06:06:21;19.00;70.10
13892;DHT22;7016;48.172;8.058;2022-08-11T06:08:48;19.10;69.60
13892;DHT22;7016;48.172;8.058;2022-08-11T06:11:14;19.20;68.10
13892;DHT22;7016;48.172;8.058;2022-08-11T06:13:45;19.30;69.40
13892;DHT22;7016;48.172;8.058;2022-08-11T06:16:13;19.50;68.10
13892;DHT22;7016;48.172;8.058;2022-08-11T06:18:45;19.60;67.60
13892;DHT22;7016;48.172;8.058;2022-08-11T06:21:12;19.70;66.60
13892;DHT22;7016;48.172;8.058;2022-08-11T06:23:38;19.80;67.80
13892;DHT22;7016;48.172;8.058;2022-08-11T06:26:09;20.00;67.50
13892;DHT22;7016;48.172;8.058;2022-08-11T06:28:36;20.20;66.00
13892;DHT22;7016;48.172;8.058;2022-08-11T06:31:18;20.50;65.30
13892;DHT22;7016;48.172;8.058;2022-08-11T06:34:14;20.50;66.10
13892;DHT22;7016;48.172;8.058;2022-08-11T06:36:53;20.60;65.00
13892;DHT22;7016;48.172;8.058;2022-08-11T06:42:10;21.00;63.20
13892;DHT22;7016;48.172;8.058;2022-08-11T06:44:45;21.10;63.80
13892;DHT22;7016;48.172;8.058;2022-08-11T06:47:15;21.30;64.00
13892;DHT22;7016;48.172;8.058;2022-08-11T06:49:44;21.40;62.20
13892;DHT22;7016;48.172;8.058;2022-08-11T06:52:34;21.40;60.10
13892;DHT22;7016;48.172;8.058;2022-08-11T06:55:06;21.70;59.10
13892;DHT22;7016;48.172;8.058;2022-08-11T06:57:35;21.70;60.80
13892;DHT22;7016;48.172;8.058;2022-08-11T07:00:20;22.00;59.00
13892;DHT22;7016;48.172;8.058;2022-08-11T07:03:00;22.00;59.60
13892;DHT22;7016;48.172;8.058;2022-08-11T07:08:14;22.20;60.00
13892;DHT22;7016;48.172;8.058;2022-08-11T07:14:03;22.40;59.10
13892;DHT22;7016;48.172;8.058;2022-08-11T07:16:50;22.40;59.20
13892;DHT22;7016;48.172;8.058;2022-08-11T07:19:21;22.60;59.60
13892;DHT22;7016;48.172;8.058;2022-08-11T07:22:09;22.60;55.50
13892;DHT22;7016;48.172;8.058;2022-08-11T07:25:29;22.70;56.90
13892;DHT22;7016;48.172;8.058;2022-08-11T07:28:19;22.90;55.50
13892;DHT22;7016;48.172;8.058;2022-08-11T07:31:10;23.10;55.20
13892;DHT22;7016;48.172;8.058;2022-08-11T07:33:45;23.20;55.80
13892;DHT22;7016;48.172;8.058;2022-08-11T07:36:12;23.30;55.10
13892;DHT22;7016;48.172;8.058;2022-08-11T07:38:42;23.40;55.40
13892;DHT22;7016;48.172;8.058;2022-08-11T07:41:14;23.50;55.60
13892;DHT22;7016;48.172;8.058;2022-08-11T07:43:40;23.50;55.20
13892;DHT22;7016;48.172;8.058;2022-08-11T07:46:07;23.60;54.80
13892;DHT22;7016;48.172;8.058;2022-08-11T07:48:54;23.60;55.60
13892;DHT22;7016;48.172;8.058;2022-08-11T07:51:38;23.80;54.30
13892;DHT22;7016;48.172;8.058;2022-08-11T07:54:22;23.80;55.80
13892;DHT22;7016;48.172;8.058;2022-08-11T07:56:49;23.90;56.10
13892;DHT22;7016;48.172;8.058;2022-08-11T07:59:17;24.00;55.60
13892;DHT22;7016;48.172;8.058;2022-08-11T08:02:02;24.00;54.70
13892;DHT22;7016;48.172;8.058;2022-08-11T08:04:46;24.10;55.90
13892;DHT22;7016;48.172;8.058;2022-08-11T08:07:31;24.20;54.40
13892;DHT22;7016;48.172;8.058;2022-08-11T08:10:16;24.30;55.10
13892;DHT22;7016;48.172;8.058;2022-08-11T08:13:01;24.30;55.30
13892;DHT22;7016;48.172;8.058;2022-08-11T08:15:45;24.40;55.10
13892;DHT22;7016;48.172;8.058;2022-08-11T08:18:33;24.40;54.20
13892;DHT22;7016;48.172;8.058;2022-08-11T08:20:59;24.50;53.20
13892;DHT22;7016;48.172;8.058;2022-08-11T08:23:37;24.50;53.50
13892;DHT22;7016;48.172;8.058;2022-08-11T08:26:06;24.40;53.80
13892;DHT22;7016;48.172;8.058;2022-08-11T08:28:51;24.40;54.30
13892;DHT22;7016;48.172;8.058;2022-08-11T08:31:18;24.60;53.80
13892;DHT22;7016;48.172;8.058;2022-08-11T08:33:44;24.60;53.60
13892;DHT22;7016;48.172;8.058;2022-08-11T08:36:10;24.80;54.50
13892;DHT22;7016;48.172;8.058;2022-08-11T08:38:42;24.80;53.50
13892;DHT22;7016;48.172;8.058;2022-08-11T08:41:08;24.80;53.10
13892;DHT22;7016;48.172;8.058;2022-08-11T08:43:37;24.80;53.20
13892;DHT22;7016;48.172;8.058;2022-08-11T08:46:06;24.80;53.10
13892;DHT22;7016;48.172;8.058;2022-08-11T08:48:34;24.90;53.10
13892;DHT22;7016;48.172;8.058;2022-08-11T08:51:06;25.00;53.20
13892;DHT22;7016;48.172;8.058;2022-08-11T08:53:54;25.00;53.70
13892;DHT22;7016;48.172;8.058;2022-08-11T08:56:27;25.20;53.00
13892;DHT22;7016;48.172;8.058;2022-08-11T08:58:54;25.10;52.60
13892;DHT22;7016;48.172;8.058;2022-08-11T09:01:20;25.20;51.80
13892;DHT22;7016;48.172;8.058;2022-08-11T09:03:47;25.30;51.90
13892;DHT22;7016;48.172;8.058;2022-08-11T09:06:14;25.30;53.10
13892;DHT22;7016;48.172;8.058;2022-08-11T09:08:43;25.40;53.30
13892;DHT22;7016;48.172;8.058;2022-08-11T09:11:09;25.50;50.50
13892;DHT22;7016;48.172;8.058;2022-08-11T09:13:55;25.50;51.50
13892;DHT22;7016;48.172;8.058;2022-08-11T09:16:22;25.50;51.90
13892;DHT22;7016;48.172;8.058;2022-08-11T09:18:50;25.50;51.10
13892;DHT22;7016;48.172;8.058;2022-08-11T09:21:17;25.70;50.20
13892;DHT22;7016;48.172;8.058;2022-08-11T09:23:48;25.80;51.50
13892;DHT22;7016;48.172;8.058;2022-08-11T09:26:34;25.90;51.10
13892;DHT22;7016;48.172;8.058;2022-08-11T09:29:21;26.00;50.90
13892;DHT22;7016;48.172;8.058;2022-08-11T09:31:47;26.00;50.00
13892;DHT22;7016;48.172;8.058;2022-08-11T09:34:14;26.00;51.10
13892;DHT22;7016;48.172;8.058;2022-08-11T09:36:42;26.20;51.00
13892;DHT22;7016;48.172;8.058;2022-08-11T09:39:30;26.10;50.40
13892;DHT22;7016;48.172;8.058;2022-08-11T09:42:15;26.10;50.00
13892;DHT22;7016;48.172;8.058;2022-08-11T09:44:41;26.00;50.30
13892;DHT22;7016;48.172;8.058;2022-08-11T09:47:21;26.30;51.30
13892;DHT22;7016;48.172;8.058;2022-08-11T09:49:47;26.30;50.60
13892;DHT22;7016;48.172;8.058;2022-08-11T09:52:14;26.40;50.50
13892;DHT22;7016;48.172;8.058;2022-08-11T09:54:41;26.30;50.60
13892;DHT22;7016;48.172;8.058;2022-08-11T09:57:08;26.40;50.20
13892;DHT22;7016;48.172;8.058;2022-08-11T09:59:52;26.40;50.20
13892;DHT22;7016;48.172;8.058;2022-08-11T10:02:24;26.50;48.30
13892;DHT22;7016;48.172;8.058;2022-08-11T10:04:55;26.50;50.00
13892;DHT22;7016;48.172;8.058;2022-08-11T10:07:44;26.40;49.00
13892;DHT22;7016;48.172;8.058;2022-08-11T10:10:16;26.50;48.30
13892;DHT22;7016;48.172;8.058;2022-08-11T10:12:55;26.40;48.80
13892;DHT22;7016;48.172;8.058;2022-08-11T10:15:23;26.50;48.50
13892;DHT22;7016;48.172;8.058;2022-08-11T10:18:14;26.50;49.00
13892;DHT22;7016;48.172;8.058;2022-08-11T10:23:51;27.10;47.80
13892;DHT22;7016;48.172;8.058;2022-08-11T10:26:37;26.90;47.40
13892;DHT22;7016;48.172;8.058;2022-08-11T10:29:29;26.90;47.10
13892;DHT22;7016;48.172;8.058;2022-08-11T10:32:20;27.00;46.60
13892;DHT22;7016;48.172;8.058;2022-08-11T10:35:06;26.90;45.70
13892;DHT22;7016;48.172;8.058;2022-08-11T10:37:35;26.80;46.80
13892;DHT22;7016;48.172;8.058;2022-08-11T10:40:03;27.10;46.30
13892;DHT22;7016;48.172;8.058;2022-08-11T10:42:30;27.30;45.50
13892;DHT22;7016;48.172;8.058;2022-08-11T10:45:16;27.40;45.50
13892;DHT22;7016;48.172;8.058;2022-08-11T10:48:01;27.40;45.50
13892;DHT22;7016;48.172;8.058;2022-08-11T10:50:29;27.50;42.80
13892;DHT22;7016;48.172;8.058;2022-08-11T10:53:34;27.50;43.30
13892;DHT22;7016;48.172;8.058;2022-08-11T10:56:19;27.50;44.30
13892;DHT22;7016;48.172;8.058;2022-08-11T10:59:05;27.60;43.40
13892;DHT22;7016;48.172;8.058;2022-08-11T11:01:40;27.40;40.80
13892;DHT22;7016;48.172;8.058;2022-08-11T11:04:26;27.40;42.30
13892;DHT22;7016;48.172;8.058;2022-08-11T11:07:16;27.30;41.80
13892;DHT22;7016;48.172;8.058;2022-08-11T11:09:50;27.30;42.50
13892;DHT22;7016;48.172;8.058;2022-08-11T11:12:32;27.60;41.50
13892;DHT22;7016;48.172;8.058;2022-08-11T11:15:20;27.80;40.80
13892;DHT22;7016;48.172;8.058;2022-08-11T11:18:06;28.00;41.70
13892;DHT22;7016;48.172;8.058;2022-08-11T11:23:18;27.70;41.30
13892;DHT22;7016;48.172;8.058;2022-08-11T11:36:47;27.60;40.50
13892;DHT22;7016;48.172;8.058;2022-08-11T11:39:22;27.70;41.00
13892;DHT22;7016;48.172;8.058;2022-08-11T11:41:49;27.90;40.90
13892;DHT22;7016;48.172;8.058;2022-08-11T11:44:16;28.10;41.60
13892;DHT22;7016;48.172;8.058;2022-08-11T11:46:44;28.10;39.80
13892;DHT22;7016;48.172;8.058;2022-08-11T11:49:11;28.20;39.20
13892;DHT22;7016;48.172;8.058;2022-08-11T11:51:37;28.00;39.50
13892;DHT22;7016;48.172;8.058;2022-08-11T11:54:04;28.10;39.10
13892;DHT22;7016;48.172;8.058;2022-08-11T11:56:30;28.10;40.10
13892;DHT22;7016;48.172;8.058;2022-08-11T11:58:57;28.20;39.60
13892;DHT22;7016;48.172;8.058;2022-08-11T12:01:43;28.20;38.80
13892;DHT22;7016;48.172;8.058;2022-08-11T12:04:11;28.20;40.30
13892;DHT22;7016;48.172;8.058;2022-08-11T12:06:38;28.20;40.20
13892;DHT22;7016;48.172;8.058;2022-08-11T12:09:05;28.10;39.60
13892;DHT22;7016;48.172;8.058;2022-08-11T12:11:31;28.00;38.40
13892;DHT22;7016;48.172;8.058;2022-08-11T12:14:18;28.00;39.40
13892;DHT22;7016;48.172;8.058;2022-08-11T12:16:46;28.20;40.70
13892;DHT22;7016;48.172;8.058;2022-08-11T12:19:17;28.30;40.10
13892;DHT22;7016;48.172;8.058;2022-08-11T12:21:46;28.20;37.30
13892;DHT22;7016;48.172;8.058;2022-08-11T12:24:33;28.20;39.20
13892;DHT22;7016;48.172;8.058;2022-08-11T12:27:19;28.30;39.20
13892;DHT22;7016;48.172;8.058;2022-08-11T12:29:54;28.40;39.50
13892;DHT22;7016;48.172;8.058;2022-08-11T12:32:30;28.40;37.50
13892;DHT22;7016;48.172;8.058;2022-08-11T12:34:57;28.40;39.10
13892;DHT22;7016;48.172;8.058;2022-08-11T12:37:27;28.20;38.00
13892;DHT22;7016;48.172;8.058;2022-08-11T12:39:59;28.20;37.90
13892;DHT22;7016;48.172;8.058;2022-08-11T12:42:48;28.30;38.40
13892;DHT22;7016;48.172;8.058;2022-08-11T12:45:33;28.50;38.10
13892;DHT22;7016;48.172;8.058;2022-08-11T12:48:08;28.80;38.30
13892;DHT22;7016;48.172;8.058;2022-08-11T12:51:00;28.70;37.70
13892;DHT22;7016;48.172;8.058;2022-08-11T12:53:56;28.70;38.70
13892;DHT22;7016;48.172;8.058;2022-08-11T12:56:24;28.60;37.50
13892;DHT22;7016;48.172;8.058;2022-08-11T12:59:11;28.60;38.90
13892;DHT22;7016;48.172;8.058;2022-08-11T13:01:56;28.80;39.00
13892;DHT22;7016;48.172;8.058;2022-08-11T13:04:41;28.80;37.90
13892;DHT22;7016;48.172;8.058;2022-08-11T13:07:27;28.70;38.10
13892;DHT22;7016;48.172;8.058;2022-08-11T13:09:54;28.70;38.20
13892;DHT22;7016;48.172;8.058;2022-08-11T13:12:24;28.60;37.70
13892;DHT22;7016;48.172;8.058;2022-08-11T13:15:13;28.60;37.80
13892;DHT22;7016;48.172;8.058;2022-08-11T13:17:39;28.60;38.80
13892;DHT22;7016;48.172;8.058;2022-08-11T13:20:08;28.60;37.80
13892;DHT22;7016;48.172;8.058;2022-08-11T13:22:34;28.60;36.90
13892;DHT22;7016;48.172;8.058;2022-08-11T13:25:02;28.60;38.40
13892;DHT22;7016;48.172;8.058;2022-08-11T13:27:29;28.70;37.80
13892;DHT22;7016;48.172;8.058;2022-08-11T13:29:55;28.70;37.20
13892;DHT22;7016;48.172;8.058;2022-08-11T13:32:41;28.70;36.70
13892;DHT22;7016;48.172;8.058;2022-08-11T13:35:11;28.70;37.20
13892;DHT22;7016;48.172;8.058;2022-08-11T13:37:40;28.80;37.00
13892;DHT22;7016;48.172;8.058;2022-08-11T13:40:07;28.90;36.30
13892;DHT22;7016;48.172;8.058;2022-08-11T13:42:34;28.90;36.50
13892;DHT22;7016;48.172;8.058;2022-08-11T13:45:00;28.90;37.00
13892;DHT22;7016;48.172;8.058;2022-08-11T13:47:26;28.90;36.50
13892;DHT22;7016;48.172;8.058;2022-08-11T13:49:53;28.90;38.10
13892;DHT22;7016;48.172;8.058;2022-08-11T13:52:20;28.80;36.50
13892;DHT22;7016;48.172;8.058;2022-08-11T13:54:47;28.90;36.90
13892;DHT22;7016;48.172;8.058;2022-08-11T13:57:14;28.90;37.00
13892;DHT22;7016;48.172;8.058;2022-08-11T13:59:44;28.90;37.30
13892;DHT22;7016;48.172;8.058;2022-08-11T14:02:17;29.00;37.20
13892;DHT22;7016;48.172;8.058;2022-08-11T14:07:19;29.00;38.20
13892;DHT22;7016;48.172;8.058;2022-08-11T14:09:54;29.00;36.70
13892;DHT22;7016;48.172;8.058;2022-08-11T14:12:24;28.90;36.90
13892;DHT22;7016;48.172;8.058;2022-08-11T14:15:17;29.00;37.10
13892;DHT22;7016;48.172;8.058;2022-08-11T14:17:47;29.00;37.50
13892;DHT22;7016;48.172;8.058;2022-08-11T14:20:17;29.00;36.70
13892;DHT22;7016;48.172;8.058;2022-08-11T14:22:44;29.00;37.20
13892;DHT22;7016;48.172;8.058;2022-08-11T14:25:13;28.90;37.00
13892;DHT22;7016;48.172;8.058;2022-08-11T14:27:43;29.00;37.00
13892;DHT22;7016;48.172;8.058;2022-08-11T14:32:56;29.00;38.10
13892;DHT22;7016;48.172;8.058;2022-08-11T14:35:24;29.00;37.90
13892;DHT22;7016;48.172;8.058;2022-08-11T14:37:52;29.00;38.30
13892;DHT22;7016;48.172;8.058;2022-08-11T14:40:17;29.00;37.30
13892;DHT22;7016;48.172;8.058;2022-08-11T14:43:02;29.00;37.90
13892;DHT22;7016;48.172;8.058;2022-08-11T14:45:46;29.10;38.50
13892;DHT22;7016;48.172;8.058;2022-08-11T14:48:31;29.00;37.60
13892;DHT22;7016;48.172;8.058;2022-08-11T14:50:57;29.10;37.40
13892;DHT22;7016;48.172;8.058;2022-08-11T14:53:24;29.10;38.30
13892;DHT22;7016;48.172;8.058;2022-08-11T14:55:50;29.10;38.10
13892;DHT22;7016;48.172;8.058;2022-08-11T14:58:35;29.10;38.20
13892;DHT22;7016;48.172;8.058;2022-08-11T15:01:02;29.10;38.20
13892;DHT22;7016;48.172;8.058;2022-08-11T15:03:48;29.10;38.50
13892;DHT22;7016;48.172;8.058;2022-08-11T15:06:17;29.10;37.70
13892;DHT22;7016;48.172;8.058;2022-08-11T15:08:43;29.00;37.90
13892;DHT22;7016;48.172;8.058;2022-08-11T15:11:28;29.10;37.70
13892;DHT22;7016;48.172;8.058;2022-08-11T15:14:13;29.10;38.10
13892;DHT22;7016;48.172;8.058;2022-08-11T15:16:59;29.20;39.10
13892;DHT22;7016;48.172;8.058;2022-08-11T15:19:38;29.10;37.70
13892;DHT22;7016;48.172;8.058;2022-08-11T15:22:24;29.10;37.80
13892;DHT22;7016;48.172;8.058;2022-08-11T15:25:08;29.10;38.10
13892;DHT22;7016;48.172;8.058;2022-08-11T15:27:34;29.10;37.70
13892;DHT22;7016;48.172;8.058;2022-08-11T15:30:20;29.00;37.70
13892;DHT22;7016;48.172;8.058;2022-08-11T15:33:07;29.00;38.30
13892;DHT22;7016;48.172;8.058;2022-08-11T15:35:53;29.00;37.90
13892;DHT22;7016;48.172;8.058;2022-08-11T15:38:46;28.90;38.20
13892;DHT22;7016;48.172;8.058;2022-08-11T15:41:16;29.00;38.10
13892;DHT22;7016;48.172;8.058;2022-08-11T15:44:02;29.00;39.00
13892;DHT22;7016;48.172;8.058;2022-08-11T15:46:50;29.00;38.30
13892;DHT22;7016;48.172;8.058;2022-08-11T15:49:22;29.00;37.80
13892;DHT22;7016;48.172;8.058;2022-08-11T15:52:09;28.90;37.90
13892;DHT22;7016;48.172;8.058;2022-08-11T15:54:39;29.00;38.50
13892;DHT22;7016;48.172;8.058;2022-08-11T15:57:09;28.90;38.30
13892;DHT22;7016;48.172;8.058;2022-08-11T15:59:56;28.90;38.80
13892;DHT22;7016;48.172;8.058;2022-08-11T16:02:43;28.90;38.00
13892;DHT22;7016;48.172;8.058;2022-08-11T16:05:16;28.90;38.80
13892;DHT22;7016;48.172;8.058;2022-08-11T16:07:43;28.90;38.50
13892;DHT22;7016;48.172;8.058;2022-08-11T16:10:15;28.90;38.00
13892;DHT22;7016;48.172;8.058;2022-08-11T16:13:02;28.90;38.60
13892;DHT22;7016;48.172;8.058;2022-08-11T16:15:36;28.90;38.90
13892;DHT22;7016;48.172;8.058;2022-08-11T16:18:27;28.90;38.60
13892;DHT22;7016;48.172;8.058;2022-08-11T16:21:10;28.80;38.70
13892;DHT22;7016;48.172;8.058;2022-08-11T16:23:37;28.80;39.10
13892;DHT22;7016;48.172;8.058;2022-08-11T16:26:05;28.80;39.10
13892;DHT22;7016;48.172;8.058;2022-08-11T16:28:33;28.70;39.30
13892;DHT22;7016;48.172;8.058;2022-08-11T16:31:01;28.70;38.50
13892;DHT22;7016;48.172;8.058;2022-08-11T16:33:28;28.70;39.30
13892;DHT22;7016;48.172;8.058;2022-08-11T16:35:55;28.70;39.90
13892;DHT22;7016;48.172;8.058;2022-08-11T16:38:40;28.70;39.10
13892;DHT22;7016;48.172;8.058;2022-08-11T16:41:16;28.70;38.90
13892;DHT22;7016;48.172;8.058;2022-08-11T16:44:03;28.60;39.10
13892;DHT22;7016;48.172;8.058;2022-08-11T16:46:48;28.60;39.50
13892;DHT22;7016;48.172;8.058;2022-08-11T16:49:31;28.50;39.20
13892;DHT22;7016;48.172;8.058;2022-08-11T16:51:58;28.40;38.60
13892;DHT22;7016;48.172;8.058;2022-08-11T16:54:27;28.40;39.30
13892;DHT22;7016;48.172;8.058;2022-08-11T16:56:54;28.40;39.50
13892;DHT22;7016;48.172;8.058;2022-08-11T16:59:33;28.40;39.30
13892;DHT22;7016;48.172;8.058;2022-08-11T17:02:15;28.30;38.60
13892;DHT22;7016;48.172;8.058;2022-08-11T17:05:04;28.30;39.60
13892;DHT22;7016;48.172;8.058;2022-08-11T17:07:51;28.30;39.30
13892;DHT22;7016;48.172;8.058;2022-08-11T17:11:00;28.30;38.90
13892;DHT22;7016;48.172;8.058;2022-08-11T17:14:01;28.20;39.40
13892;DHT22;7016;48.172;8.058;2022-08-11T17:16:33;28.30;39.90
13892;DHT22;7016;48.172;8.058;2022-08-11T17:19:04;28.40;40.40
13892;DHT22;7016;48.172;8.058;2022-08-11T17:21:48;28.30;39.10
13892;DHT22;7016;48.172;8.058;2022-08-11T17:24:35;28.20;39.80
13892;DHT22;7016;48.172;8.058;2022-08-11T17:27:02;28.10;40.10
13892;DHT22;7016;48.172;8.058;2022-08-11T17:29:50;28.10;40.20
13892;DHT22;7016;48.172;8.058;2022-08-11T17:32:18;28.10;39.30
13892;DHT22;7016;48.172;8.058;2022-08-11T17:35:08;28.10;40.40
13892;DHT22;7016;48.172;8.058;2022-08-11T17:37:55;28.10;40.50
13892;DHT22;7016;48.172;8.058;2022-08-11T17:40:22;28.00;39.60
13892;DHT22;7016;48.172;8.058;2022-08-11T17:42:52;27.90;40.10
13892;DHT22;7016;48.172;8.058;2022-08-11T17:45:39;27.80;40.20
13892;DHT22;7016;48.172;8.058;2022-08-11T17:48:30;27.80;40.70
13892;DHT22;7016;48.172;8.058;2022-08-11T17:51:17;27.80;40.40
13892;DHT22;7016;48.172;8.058;2022-08-11T17:54:04;27.80;41.10
13892;DHT22;7016;48.172;8.058;2022-08-11T17:56:50;27.70;40.70
13892;DHT22;7016;48.172;8.058;2022-08-11T17:59:36;27.60;41.00
13892;DHT22;7016;48.172;8.058;2022-08-11T18:02:23;27.60;40.30
13892;DHT22;7016;48.172;8.058;2022-08-11T18:05:11;27.60;41.40
13892;DHT22;7016;48.172;8.058;2022-08-11T18:07:40;27.50;41.20
13892;DHT22;7016;48.172;8.058;2022-08-11T18:10:25;27.50;41.00
13892;DHT22;7016;48.172;8.058;2022-08-11T18:13:10;27.50;41.30
13892;DHT22;7016;48.172;8.058;2022-08-11T18:15:55;27.30;41.30
13892;DHT22;7016;48.172;8.058;2022-08-11T18:18:39;27.20;41.20
13892;DHT22;7016;48.172;8.058;2022-08-11T18:21:25;27.30;41.90
13892;DHT22;7016;48.172;8.058;2022-08-11T18:24:12;27.30;43.40
13892;DHT22;7016;48.172;8.058;2022-08-11T18:27:00;27.20;42.50
13892;DHT22;7016;48.172;8.058;2022-08-11T18:29:48;27.10;42.10
13892;DHT22;7016;48.172;8.058;2022-08-11T18:32:34;27.10;41.50
13892;DHT22;7016;48.172;8.058;2022-08-11T18:35:20;27.10;42.50
13892;DHT22;7016;48.172;8.058;2022-08-11T18:38:09;27.10;42.90
13892;DHT22;7016;48.172;8.058;2022-08-11T18:40:56;26.90;41.70
13892;DHT22;7016;48.172;8.058;2022-08-11T18:43:45;26.90;42.40
13892;DHT22;7016;48.172;8.058;2022-08-11T18:46:35;26.90;43.00
13892;DHT22;7016;48.172;8.058;2022-08-11T18:49:24;26.70;44.20
13892;DHT22;7016;48.172;8.058;2022-08-11T18:52:08;26.60;43.20
13892;DHT22;7016;48.172;8.058;2022-08-11T18:54:57;26.70;42.80
13892;DHT22;7016;48.172;8.058;2022-08-11T18:57:46;26.50;44.40
13892;DHT22;7016;48.172;8.058;2022-08-11T19:00:32;26.20;44.60
13892;DHT22;7016;48.172;8.058;2022-08-11T19:03:18;26.20;45.50
13892;DHT22;7016;48.172;8.058;2022-08-11T19:06:04;26.10;46.80
13892;DHT22;7016;48.172;8.058;2022-08-11T19:08:56;26.10;45.60
13892;DHT22;7016;48.172;8.058;2022-08-11T19:11:40;25.90;46.20
13892;DHT22;7016;48.172;8.058;2022-08-11T19:14:26;25.80;47.40
13892;DHT22;7016;48.172;8.058;2022-08-11T19:17:13;25.80;46.70
13892;DHT22;7016;48.172;8.058;2022-08-11T19:19:58;25.70;46.90
13892;DHT22;7016;48.172;8.058;2022-08-11T19:22:45;25.70;46.80
13892;DHT22;7016;48.172;8.058;2022-08-11T19:25:31;25.50;46.90
13892;DHT22;7016;48.172;8.058;2022-08-11T19:28:17;25.50;46.90
13892;DHT22;7016;48.172;8.058;2022-08-11T19:31:03;25.20;47.00
13892;DHT22;7016;48.172;8.058;2022-08-11T19:33:48;25.20;47.70
13892;DHT22;7016;48.172;8.058;2022-08-11T19:36:34;25.20;48.20
13892;DHT22;7016;48.172;8.058;2022-08-11T19:39:20;25.00;47.20
13892;DHT22;7016;48.172;8.058;2022-08-11T19:42:08;25.00;47.00
13892;DHT22;7016;48.172;8.058;2022-08-11T19:44:53;24.90;48.30
13892;DHT22;7016;48.172;8.058;2022-08-11T19:47:41;24.90;48.50
13892;DHT22;7016;48.172;8.058;2022-08-11T19:50:26;24.70;48.20
13892;DHT22;7016;48.172;8.058;2022-08-11T19:53:10;24.70;48.90
13892;DHT22;7016;48.172;8.058;2022-08-11T19:55:56;24.70;48.00
13892;DHT22;7016;48.172;8.058;2022-08-11T19:58:42;24.60;48.10
13892;DHT22;7016;48.172;8.058;2022-08-11T20:01:26;24.50;47.30
13892;DHT22;7016;48.172;8.058;2022-08-11T20:04:11;24.50;48.40
13892;DHT22;7016;48.172;8.058;2022-08-11T20:06:56;24.50;48.20
13892;DHT22;7016;48.172;8.058;2022-08-11T20:09:42;24.50;48.80
13892;DHT22;7016;48.172;8.058;2022-08-11T20:12:28;24.30;48.50
13892;DHT22;7016;48.172;8.058;2022-08-11T20:15:14;24.20;48.80
13892;DHT22;7016;48.172;8.058;2022-08-11T20:18:00;24.20;48.10